createdAt,value
2019-02-11T00:01:28.766Z,94.40
2019-02-11T00:03:30.472Z,94.60
2019-02-11T00:05:32.206Z,94.60
2019-02-11T00:07:33.910Z,94.90
2019-02-11T00:09:35.605Z,95.60
2019-02-11T00:11:37.622Z,97.10
2019-02-11T00:13:39.333Z,97.30
2019-02-11T00:15:41.124Z,97.50
2019-02-11T00:17:42.839Z,97.00
2019-02-11T00:19:44.537Z,96.60
2019-02-11T00:21:46.230Z,96.90
2019-02-11T00:23:47.945Z,97.60
2019-02-11T00:25:49.664Z,98.30
2019-02-11T00:27:51.377Z,98.30
2019-02-11T00:29:53.081Z,98.30
2019-02-11T00:31:55.004Z,98.30
2019-02-11T00:33:56.712Z,98.30
2019-02-11T00:35:58.426Z,98.30
2019-02-11T00:38:00.125Z,98.30
2019-02-11T00:40:02.029Z,98.30
2019-02-11T00:42:03.754Z,98.30
2019-02-11T00:44:05.465Z,98.30
2019-02-11T00:46:07.181Z,98.30
2019-02-11T00:48:09.041Z,98.30
2019-02-11T00:50:10.853Z,98.30
2019-02-11T00:52:12.553Z,98.30
2019-02-11T00:54:14.265Z,98.30
2019-02-11T00:56:16.032Z,98.30
2019-02-11T00:58:17.744Z,98.30
2019-02-11T01:00:19.654Z,98.30
2019-02-11T01:02:21.349Z,98.30
2019-02-11T01:04:23.056Z,98.30
2019-02-11T01:06:24.785Z,98.30
2019-02-11T01:08:26.484Z,98.30
2019-02-11T01:10:28.232Z,98.30
2019-02-11T01:12:30.906Z,98.30
2019-02-11T01:14:32.614Z,98.30
2019-02-11T01:16:34.504Z,98.30
2019-02-11T01:18:36.200Z,98.30
2019-02-11T01:20:37.908Z,98.30
2019-02-11T01:22:39.824Z,98.30
2019-02-11T01:24:41.689Z,98.30
2019-02-11T01:26:43.393Z,98.30
2019-02-11T01:28:45.137Z,98.30
2019-02-11T01:30:46.853Z,98.30
2019-02-11T01:32:48.585Z,98.30
2019-02-11T01:34:50.370Z,98.30
2019-02-11T01:36:52.108Z,98.30
2019-02-11T01:38:53.813Z,98.30
2019-02-11T01:40:55.512Z,98.30
2019-02-11T01:42:57.539Z,98.30
2019-02-11T01:44:59.257Z,98.30
2019-02-11T01:47:01.189Z,98.30
2019-02-11T01:49:02.994Z,98.30
2019-02-11T01:51:04.708Z,98.30
2019-02-11T01:53:06.412Z,98.30
2019-02-11T01:55:08.566Z,98.30
2019-02-11T01:57:10.258Z,98.30
2019-02-11T01:59:11.969Z,98.30
2019-02-11T02:01:13.708Z,98.30
2019-02-11T02:03:15.425Z,98.30
2019-02-11T02:05:17.225Z,98.30
2019-02-11T02:07:18.937Z,98.30
2019-02-11T02:09:20.837Z,98.30
2019-02-11T02:11:22.545Z,98.30
2019-02-11T02:13:24.517Z,98.30
2019-02-11T02:15:26.217Z,98.30
2019-02-11T02:17:27.930Z,98.30
2019-02-11T02:19:29.653Z,98.30
2019-02-11T02:21:31.467Z,98.30
2019-02-11T02:23:33.280Z,98.30
2019-02-11T02:25:34.993Z,98.30
2019-02-11T02:27:36.692Z,98.30
2019-02-11T02:29:38.428Z,98.30
2019-02-11T02:31:40.127Z,98.30
2019-02-11T02:33:41.828Z,98.30
2019-02-11T02:35:43.555Z,98.30
2019-02-11T02:37:45.271Z,98.30
2019-02-11T02:39:46.969Z,97.50
2019-02-11T02:41:48.802Z,96.10
2019-02-11T02:43:55.532Z,95.80
2019-02-11T02:45:54.084Z,95.90
2019-02-11T02:47:55.809Z,95.10
2019-02-11T02:49:57.504Z,94.50
2019-02-11T02:51:59.223Z,93.90
2019-02-11T02:54:01.143Z,94.20
2019-02-11T02:56:03.190Z,93.40
2019-02-11T02:58:04.900Z,92.50
2019-02-11T03:00:07.894Z,92.70
2019-02-11T03:02:09.855Z,92.40
2019-02-11T03:04:11.586Z,92.50
2019-02-11T03:06:13.609Z,92.60
2019-02-11T03:08:15.302Z,92.30
2019-02-11T03:10:17.008Z,92.70
2019-02-11T03:12:18.729Z,92.30
2019-02-11T03:14:20.429Z,92.50
2019-02-11T03:16:22.128Z,93.20
2019-02-11T03:18:23.933Z,92.70
2019-02-11T03:20:25.757Z,91.90
2019-02-11T03:22:27.458Z,94.20
2019-02-11T03:24:29.180Z,94.10
2019-02-11T03:26:30.892Z,93.90
2019-02-11T03:28:32.611Z,94.10
2019-02-11T03:30:34.934Z,95.50
2019-02-11T03:32:36.666Z,95.30
2019-02-11T03:34:38.445Z,94.80
2019-02-11T03:36:40.161Z,95.30
2019-02-11T03:38:41.864Z,95.20
2019-02-11T03:40:43.556Z,95.40
2019-02-11T03:42:45.305Z,95.10
2019-02-11T03:44:47.022Z,95.60
2019-02-11T03:46:48.732Z,95.50
2019-02-11T03:48:50.432Z,95.40
2019-02-11T03:50:52.351Z,95.70
2019-02-11T03:52:54.229Z,96.00
2019-02-11T03:54:55.944Z,95.40
2019-02-11T03:56:57.652Z,96.00
2019-02-11T03:58:59.366Z,94.70
2019-02-11T04:01:01.093Z,94.70
2019-02-11T04:03:02.913Z,95.20
2019-02-11T04:05:05.454Z,95.20
2019-02-11T04:07:07.377Z,96.60
2019-02-11T04:09:09.066Z,95.80
2019-02-11T04:11:10.777Z,96.20
2019-02-11T04:13:12.501Z,95.10
2019-02-11T04:15:14.352Z,96.10
2019-02-11T04:17:16.062Z,95.80
2019-02-11T04:19:17.762Z,94.50
2019-02-11T04:21:19.469Z,94.10
2019-02-11T04:23:21.204Z,93.50
2019-02-11T04:25:22.914Z,93.00
2019-02-11T04:27:24.617Z,93.20
2019-02-11T04:29:26.439Z,92.50
2019-02-11T04:31:28.355Z,91.40
2019-02-11T04:33:30.070Z,92.00
2019-02-11T04:35:31.898Z,92.50
2019-02-11T04:37:33.600Z,93.40
2019-02-11T04:39:35.309Z,93.40
2019-02-11T04:41:37.025Z,94.40
2019-02-11T04:43:38.744Z,94.80
2019-02-11T04:45:40.451Z,95.00
2019-02-11T04:47:42.160Z,94.70
2019-02-11T04:49:43.861Z,94.80
2019-02-11T04:51:45.591Z,94.60
2019-02-11T04:53:47.321Z,96.30
2019-02-11T04:55:49.030Z,96.60
2019-02-11T04:57:50.725Z,96.90
2019-02-11T04:59:52.489Z,97.50
2019-02-11T05:01:54.208Z,98.30
2019-02-11T05:03:55.912Z,98.30
2019-02-11T05:05:57.633Z,98.30
2019-02-11T05:07:59.335Z,98.30
2019-02-11T05:10:01.075Z,98.30
2019-02-11T05:12:02.828Z,98.30
2019-02-11T05:14:04.542Z,98.30
2019-02-11T05:16:07.118Z,98.30
2019-02-11T05:18:08.842Z,98.30
2019-02-11T05:20:10.853Z,98.30
2019-02-11T05:22:12.576Z,98.30
2019-02-11T05:24:14.377Z,98.30
2019-02-11T05:26:16.089Z,98.30
2019-02-11T05:28:17.797Z,98.30
2019-02-11T05:30:19.527Z,98.30
2019-02-11T05:32:24.547Z,98.30
2019-02-11T05:34:26.281Z,98.30
2019-02-11T05:36:27.994Z,98.30
2019-02-11T05:38:29.716Z,98.30
2019-02-11T05:40:31.455Z,98.30
2019-02-11T05:42:33.154Z,98.30
2019-02-11T05:44:34.959Z,98.30
2019-02-11T05:46:36.824Z,98.30
2019-02-11T05:48:38.521Z,98.30
2019-02-11T05:50:40.343Z,98.30
2019-02-11T05:52:42.055Z,98.30
2019-02-11T05:54:43.770Z,98.30
2019-02-11T05:56:45.589Z,98.30
2019-02-11T05:58:48.639Z,98.30
2019-02-11T06:00:50.778Z,98.30
2019-02-11T06:02:52.557Z,98.30
2019-02-11T06:04:54.271Z,98.30
2019-02-11T06:06:56.000Z,98.30
2019-02-11T06:08:57.734Z,98.30
2019-02-11T06:11:07.724Z,98.30
2019-02-11T06:13:09.497Z,98.30
2019-02-11T06:15:13.981Z,98.30
2019-02-11T06:17:15.725Z,98.30
2019-02-11T06:19:19.905Z,98.30
2019-02-11T06:21:21.826Z,98.30
2019-02-11T06:23:23.572Z,98.30
2019-02-11T06:25:25.398Z,98.30
2019-02-11T06:27:27.201Z,98.30
2019-02-11T06:29:29.389Z,98.30
2019-02-11T06:31:31.063Z,98.30
2019-02-11T06:33:32.956Z,98.30
2019-02-11T06:35:34.669Z,98.30
2019-02-11T06:37:36.365Z,98.30
2019-02-11T06:39:42.854Z,98.30
2019-02-11T06:41:44.610Z,98.30
2019-02-11T06:43:46.324Z,98.30
2019-02-11T06:45:48.489Z,98.30
2019-02-11T06:47:50.271Z,98.30
2019-02-11T06:49:53.910Z,98.30
2019-02-11T06:51:58.784Z,98.30
2019-02-11T06:54:00.789Z,98.30
2019-02-11T06:56:02.973Z,98.30
2019-02-11T06:58:04.875Z,98.30
2019-02-11T07:00:09.137Z,98.30
2019-02-11T07:02:10.837Z,98.30
2019-02-11T07:04:17.885Z,98.30
2019-02-11T07:06:19.853Z,98.30
2019-02-11T07:08:21.545Z,98.30
2019-02-11T07:10:23.775Z,98.30
2019-02-11T07:12:25.656Z,98.30
2019-02-11T07:14:27.357Z,98.30
2019-02-11T07:16:29.060Z,98.30
2019-02-11T07:18:30.799Z,98.30
2019-02-11T07:20:32.497Z,98.30
2019-02-11T07:22:38.131Z,98.30
2019-02-11T07:24:39.863Z,98.30
2019-02-11T07:26:42.486Z,98.30
2019-02-11T07:28:44.236Z,98.30
2019-02-11T07:30:46.116Z,98.30
2019-02-11T07:32:51.866Z,98.30
2019-02-11T07:34:53.710Z,98.30
2019-02-11T07:36:55.408Z,98.30
2019-02-11T07:38:57.128Z,98.30
2019-02-11T07:40:59.299Z,98.30
2019-02-11T07:43:16.244Z,98.30
2019-02-11T07:45:29.863Z,98.30
2019-02-11T07:47:26.569Z,98.30
2019-02-11T07:49:30.701Z,98.30
2019-02-11T07:51:32.452Z,98.30
2019-02-11T07:53:34.160Z,98.30
2019-02-11T07:55:35.862Z,98.30
2019-02-11T07:57:37.574Z,98.30
2019-02-11T07:59:41.949Z,98.30
2019-02-11T08:01:43.648Z,98.30
2019-02-11T08:03:45.467Z,98.30
2019-02-11T08:05:47.269Z,98.30
2019-02-11T08:07:48.985Z,98.30
2019-02-11T08:09:50.697Z,98.30
2019-02-11T08:11:52.505Z,98.30
2019-02-11T08:13:54.254Z,98.30
2019-02-11T08:15:56.554Z,98.30
2019-02-11T08:17:58.413Z,98.30
2019-02-11T08:20:00.303Z,98.30
2019-02-11T08:22:03.193Z,98.30
2019-02-11T08:24:07.618Z,98.30
2019-02-11T08:26:09.333Z,98.30
2019-02-11T08:28:19.236Z,98.30
2019-02-11T08:30:14.935Z,98.30
2019-02-11T08:32:16.678Z,98.30
2019-02-11T08:34:18.665Z,98.30
2019-02-11T08:36:20.383Z,98.30
2019-02-11T08:38:22.224Z,98.30
2019-02-11T08:40:24.482Z,98.30
2019-02-11T08:42:26.189Z,98.30
2019-02-11T08:44:27.998Z,98.30
2019-02-11T08:46:29.929Z,98.30
2019-02-11T08:48:31.644Z,98.30
2019-02-11T08:50:33.970Z,98.30
2019-02-11T08:52:35.802Z,98.30
2019-02-11T08:54:38.171Z,98.30
2019-02-11T08:56:39.894Z,98.30
2019-02-11T08:58:41.728Z,98.30
2019-02-11T09:00:43.430Z,98.30
2019-02-11T09:02:45.134Z,98.30
2019-02-11T09:04:46.889Z,98.30
2019-02-11T09:06:48.617Z,98.30
2019-02-11T09:08:50.432Z,98.30
2019-02-11T09:10:52.359Z,98.30
2019-02-11T09:12:54.360Z,98.30
2019-02-11T09:14:56.168Z,98.30
2019-02-11T09:16:58.007Z,98.30
2019-02-11T09:19:00.013Z,98.30
2019-02-11T09:21:01.733Z,98.30
2019-02-11T09:23:03.636Z,98.30
2019-02-11T09:25:06.893Z,98.30
2019-02-11T09:27:08.752Z,98.30
2019-02-11T09:29:10.556Z,98.30
2019-02-11T09:31:12.305Z,98.30
2019-02-11T09:33:14.127Z,98.30
2019-02-11T09:35:15.981Z,98.30
2019-02-11T09:37:17.795Z,98.30
2019-02-11T09:39:19.606Z,98.30
2019-02-11T09:41:21.581Z,98.30
2019-02-11T09:43:23.306Z,98.30
2019-02-11T09:45:25.333Z,98.30
2019-02-11T09:47:27.037Z,98.30
2019-02-11T09:49:28.852Z,98.30
2019-02-11T09:51:32.360Z,98.30
2019-02-11T09:53:34.273Z,98.30
2019-02-11T09:55:36.017Z,98.30
2019-02-11T09:57:38.117Z,98.30
2019-02-11T09:59:39.824Z,98.30
2019-02-11T10:01:41.569Z,98.30
2019-02-11T10:03:43.290Z,98.30
2019-02-11T10:05:44.996Z,98.30
2019-02-11T10:07:46.981Z,98.30
2019-02-11T10:09:48.686Z,98.30
2019-02-11T10:11:50.829Z,98.30
2019-02-11T10:13:52.682Z,98.30
2019-02-11T10:15:54.873Z,98.30
2019-02-11T10:17:57.008Z,98.30
2019-02-11T10:19:58.736Z,98.30
2019-02-11T10:22:00.566Z,98.30
2019-02-11T10:24:02.367Z,98.30
2019-02-11T10:26:04.469Z,98.30
2019-02-11T10:28:08.829Z,98.30
2019-02-11T10:30:11.553Z,98.30
2019-02-11T10:32:13.282Z,98.30
2019-02-11T10:34:14.993Z,98.30
2019-02-11T10:36:17.190Z,98.30
2019-02-11T10:38:19.022Z,98.30
2019-02-11T10:40:21.137Z,98.30
2019-02-11T10:42:22.838Z,98.30
2019-02-11T10:44:24.571Z,98.30
2019-02-11T10:46:26.409Z,98.30
2019-02-11T10:48:28.271Z,98.30
2019-02-11T10:50:30.077Z,98.30
2019-02-11T10:52:32.286Z,98.30
2019-02-11T10:54:34.138Z,98.30
2019-02-11T10:56:35.869Z,98.30
2019-02-11T10:58:37.626Z,98.30
2019-02-11T11:00:39.679Z,98.30
2019-02-11T11:02:41.581Z,98.30
2019-02-11T11:04:43.806Z,98.30
2019-02-11T11:06:45.614Z,98.30
2019-02-11T11:08:47.602Z,98.30
2019-02-11T11:10:49.514Z,98.30
2019-02-11T11:12:51.309Z,97.40
2019-02-11T11:14:53.029Z,95.30
2019-02-11T11:16:54.948Z,96.20
2019-02-11T11:18:56.661Z,96.80
2019-02-11T11:20:58.697Z,98.10
2019-02-11T11:23:00.550Z,98.30
2019-02-11T11:25:02.590Z,98.30
2019-02-11T11:27:04.286Z,96.20
2019-02-11T11:29:06.586Z,95.20
2019-02-11T11:31:08.926Z,94.20
2019-02-11T11:33:10.830Z,93.90
2019-02-11T11:35:13.434Z,93.70
2019-02-11T11:37:15.131Z,94.20
2019-02-11T11:39:21.789Z,93.60
2019-02-11T11:41:24.256Z,94.20
2019-02-11T11:43:25.945Z,94.60
2019-02-11T11:45:27.977Z,94.70
2019-02-11T11:47:29.893Z,94.60
2019-02-11T11:49:31.677Z,94.10
2019-02-11T11:51:33.365Z,92.90
2019-02-11T11:53:35.124Z,93.30
2019-02-11T11:55:36.941Z,93.80
2019-02-11T11:57:38.850Z,93.00
2019-02-11T11:59:41.003Z,92.00
2019-02-11T12:01:42.727Z,92.20
2019-02-11T12:03:44.503Z,91.90
2019-02-11T12:05:46.534Z,90.70
2019-02-11T12:07:48.350Z,90.40
2019-02-11T12:09:50.440Z,89.40
2019-02-11T12:11:52.285Z,87.50
2019-02-11T12:13:59.483Z,85.90
2019-02-11T12:16:01.340Z,82.70
2019-02-11T12:18:12.350Z,82.00
2019-02-11T12:20:14.351Z,80.10
2019-02-11T12:22:16.044Z,82.20
2019-02-11T12:24:18.267Z,83.30
2019-02-11T12:26:21.465Z,85.20
2019-02-11T12:28:23.561Z,86.20
2019-02-11T12:30:25.474Z,87.80
2019-02-11T12:32:27.227Z,89.50
2019-02-11T12:34:29.250Z,91.30
2019-02-11T12:36:31.116Z,92.20
2019-02-11T12:38:35.229Z,93.60
2019-02-11T12:40:37.239Z,94.50
2019-02-11T12:42:38.947Z,95.40
2019-02-11T12:45:00.616Z,95.80
2019-02-11T12:47:13.240Z,95.80
2019-02-11T12:49:06.793Z,94.90
2019-02-11T12:51:08.562Z,94.00
2019-02-11T12:53:10.501Z,94.40
2019-02-11T12:55:12.537Z,94.40
2019-02-11T12:57:14.327Z,93.80
2019-02-11T12:59:16.048Z,93.50
2019-02-11T13:01:18.097Z,91.50
2019-02-11T13:03:19.816Z,91.90
2019-02-11T13:05:26.723Z,92.40
2019-02-11T13:07:25.330Z,92.30
2019-02-11T13:09:27.028Z,92.80
2019-02-11T13:11:28.906Z,93.50
2019-02-11T13:13:30.595Z,94.00
2019-02-11T13:15:57.976Z,94.30
2019-02-11T13:17:35.965Z,91.50
2019-02-11T13:19:37.670Z,87.80
2019-02-11T13:21:39.373Z,88.60
2019-02-11T13:23:41.087Z,89.70
2019-02-11T13:25:42.834Z,90.80
2019-02-11T13:27:44.801Z,88.70
2019-02-11T13:29:47.015Z,86.10
2019-02-11T13:31:48.777Z,81.50
2019-02-11T13:33:50.502Z,79.90
2019-02-11T13:35:52.838Z,79.40
2019-02-11T13:37:56.093Z,76.90
2019-02-11T13:39:58.277Z,74.80
2019-02-11T13:42:00.234Z,74.80
2019-02-11T13:44:01.936Z,74.90
2019-02-11T13:46:04.946Z,74.20
2019-02-11T13:48:06.827Z,73.40
2019-02-11T13:50:09.764Z,75.60
2019-02-11T13:52:14.469Z,73.10
2019-02-11T13:54:16.213Z,77.00
2019-02-11T13:56:18.073Z,75.20
2019-02-11T13:58:19.966Z,75.70
2019-02-11T14:00:32.821Z,76.10
2019-02-11T14:02:40.446Z,77.10
2019-02-11T14:04:42.129Z,78.90
2019-02-11T14:06:43.959Z,77.50
2019-02-11T14:08:45.799Z,78.00
2019-02-11T14:10:47.645Z,78.40
2019-02-11T14:12:49.593Z,76.30
2019-02-11T14:14:51.368Z,74.50
2019-02-11T14:16:53.348Z,75.60
2019-02-11T14:18:55.058Z,75.60
2019-02-11T14:20:56.765Z,75.80
2019-02-11T14:22:58.473Z,75.30
2019-02-11T14:25:00.514Z,72.80
2019-02-11T14:27:02.493Z,71.30
2019-02-11T14:29:04.291Z,69.70
2019-02-11T14:31:05.985Z,69.90
2019-02-11T14:33:08.621Z,67.70
2019-02-11T14:35:10.432Z,67.50
2019-02-11T14:37:12.124Z,68.20
2019-02-11T14:39:13.832Z,69.00
2019-02-11T14:41:15.638Z,68.90
2019-02-11T14:43:17.339Z,69.30
2019-02-11T14:45:19.167Z,70.60
2019-02-11T14:47:20.984Z,70.40
2019-02-11T14:49:23.042Z,70.20
2019-02-11T14:51:24.773Z,69.90
2019-02-11T14:53:26.485Z,69.70
2019-02-11T14:55:28.181Z,70.70
2019-02-11T14:57:29.885Z,71.10
2019-02-11T14:59:31.578Z,71.40
2019-02-11T15:01:33.294Z,69.70
2019-02-11T15:03:35.216Z,70.30
2019-02-11T15:05:36.906Z,70.50
2019-02-11T15:07:38.615Z,70.90
2019-02-11T15:09:40.421Z,71.50
2019-02-11T15:11:42.229Z,71.80
2019-02-11T15:13:43.921Z,72.00
2019-02-11T15:15:45.629Z,71.90
2019-02-11T15:17:47.382Z,72.30
2019-02-11T15:19:49.081Z,72.20
2019-02-11T15:21:50.889Z,72.10
2019-02-11T15:23:52.613Z,71.60
2019-02-11T15:25:54.316Z,72.60
2019-02-11T15:27:56.016Z,73.40
2019-02-11T15:29:57.729Z,74.00
2019-02-11T15:31:59.429Z,74.80
2019-02-11T15:34:01.241Z,75.40
2019-02-11T15:36:03.069Z,76.40
2019-02-11T15:38:04.765Z,77.70
2019-02-11T15:40:08.999Z,77.90
2019-02-11T15:42:10.703Z,77.30
2019-02-11T15:44:12.394Z,77.60
2019-02-11T15:46:14.097Z,77.50
2019-02-11T15:48:15.829Z,78.00
2019-02-11T15:50:17.645Z,77.90
2019-02-11T15:52:19.527Z,78.60
2019-02-11T15:54:21.345Z,78.60
2019-02-11T15:56:23.042Z,77.80
2019-02-11T15:58:24.824Z,77.70
2019-02-11T16:00:26.585Z,78.40
2019-02-11T16:02:28.286Z,79.20
2019-02-11T16:04:29.989Z,79.40
2019-02-11T16:06:37.901Z,80.90
2019-02-11T16:08:35.413Z,81.80
2019-02-11T16:10:37.211Z,83.20
2019-02-11T16:12:38.929Z,84.40
2019-02-11T16:14:40.685Z,86.00
2019-02-11T16:16:42.404Z,87.00
2019-02-11T16:18:51.683Z,87.80
2019-02-11T16:20:47.864Z,88.70
2019-02-11T16:22:49.583Z,89.10
2019-02-11T16:24:51.311Z,89.50
2019-02-11T16:26:53.356Z,90.10
2019-02-11T16:28:55.125Z,90.60
2019-02-11T16:30:57.089Z,90.90
2019-02-11T16:32:58.792Z,91.60
2019-02-11T16:35:00.535Z,92.10
2019-02-11T16:37:02.812Z,92.10
2019-02-11T16:39:04.826Z,92.20
2019-02-11T16:41:06.647Z,92.20
2019-02-11T16:43:08.401Z,92.80
2019-02-11T16:45:10.708Z,93.00
2019-02-11T16:47:12.414Z,92.90
2019-02-11T16:49:14.361Z,93.10
2019-02-11T16:51:16.273Z,93.20
2019-02-11T16:53:18.029Z,93.40
2019-02-11T16:55:20.009Z,93.70
2019-02-11T16:57:21.729Z,93.90
2019-02-11T16:59:23.444Z,94.30
2019-02-11T17:01:25.183Z,94.50
2019-02-11T17:03:26.984Z,94.90
2019-02-11T17:05:28.687Z,94.70
2019-02-11T17:07:30.524Z,94.90
2019-02-11T17:09:32.331Z,95.10
2019-02-11T17:11:34.136Z,95.20
2019-02-11T17:13:35.945Z,95.50
2019-02-11T17:15:37.649Z,95.20
2019-02-11T17:17:39.462Z,95.20
2019-02-11T17:19:41.193Z,95.20
2019-02-11T17:21:42.889Z,95.30
2019-02-11T17:23:44.589Z,95.40
2019-02-11T17:25:46.520Z,95.70
2019-02-11T17:27:48.240Z,95.80
2019-02-11T17:29:49.962Z,96.00
2019-02-11T17:31:51.701Z,96.10
2019-02-11T17:33:53.665Z,96.30
2019-02-11T17:35:55.415Z,96.20
2019-02-11T17:37:57.943Z,96.40
2019-02-11T17:39:59.773Z,96.30
2019-02-11T17:42:01.508Z,96.60
2019-02-11T17:44:03.356Z,96.70
2019-02-11T17:46:05.350Z,97.20
2019-02-11T17:48:07.177Z,97.40
2019-02-11T17:50:09.752Z,97.60
2019-02-11T17:52:11.749Z,98.00
2019-02-11T17:54:19.774Z,98.10
2019-02-11T17:56:21.895Z,98.20
2019-02-11T17:58:23.700Z,98.30
2019-02-11T18:00:29.881Z,98.30
2019-02-11T18:02:31.635Z,98.30
2019-02-11T18:04:35.109Z,98.30
2019-02-11T18:06:36.854Z,98.30
2019-02-11T18:08:38.661Z,98.30
2019-02-11T18:10:40.500Z,98.30
2019-02-11T18:12:42.269Z,98.20
2019-02-11T18:14:43.976Z,98.30
2019-02-11T18:16:45.689Z,98.30
2019-02-11T18:18:47.406Z,98.30
2019-02-11T18:20:49.113Z,98.30
2019-02-11T18:22:51.111Z,98.30
2019-02-11T18:24:52.993Z,98.30
2019-02-11T18:26:54.692Z,98.30
2019-02-11T18:28:57.252Z,98.30
2019-02-11T18:30:59.170Z,98.30
2019-02-11T18:33:01.121Z,98.30
2019-02-11T18:35:04.406Z,98.30
2019-02-11T18:37:06.217Z,98.30
2019-02-11T18:39:08.055Z,98.30
2019-02-11T18:41:10.153Z,98.30
2019-02-11T18:43:11.868Z,98.30
2019-02-11T18:45:13.810Z,98.30
2019-02-11T18:47:15.538Z,98.30
2019-02-11T18:49:17.373Z,98.30
2019-02-11T18:51:19.144Z,98.30
2019-02-11T18:53:20.858Z,98.30
2019-02-11T18:55:22.577Z,98.30
2019-02-11T18:57:24.297Z,98.30
2019-02-11T18:59:26.024Z,98.30
2019-02-11T19:01:27.822Z,98.30
2019-02-11T19:03:29.532Z,98.30
2019-02-11T19:05:31.352Z,98.30
2019-02-11T19:07:33.165Z,98.30
2019-02-11T19:09:34.882Z,98.30
2019-02-11T19:11:36.675Z,98.30
2019-02-11T19:13:38.461Z,98.30
2019-02-11T19:15:40.178Z,98.30
2019-02-11T19:17:42.157Z,98.30
2019-02-11T19:19:43.878Z,98.30
2019-02-11T19:21:45.610Z,98.30
2019-02-11T19:23:47.405Z,98.30
2019-02-11T19:25:49.185Z,98.30
2019-02-11T19:27:51.029Z,98.30
2019-02-11T19:29:52.798Z,98.30
2019-02-11T19:31:54.498Z,98.30
2019-02-11T19:33:56.216Z,98.30
2019-02-11T19:35:57.945Z,98.30
2019-02-11T19:37:59.681Z,98.30
2019-02-11T19:40:01.389Z,98.30
2019-02-11T19:42:03.217Z,98.30
2019-02-11T19:44:04.943Z,98.30
2019-02-11T19:46:06.663Z,98.30
2019-02-11T19:48:08.443Z,98.30
2019-02-11T19:50:11.856Z,98.30
2019-02-11T19:52:13.573Z,98.30
2019-02-11T19:54:17.943Z,98.30
2019-02-11T19:56:19.671Z,98.30
2019-02-11T19:58:21.565Z,98.30
2019-02-11T20:00:23.380Z,98.30
2019-02-11T20:02:25.304Z,98.30
2019-02-11T20:04:27.030Z,98.30
2019-02-11T20:06:28.746Z,98.30
2019-02-11T20:08:30.452Z,98.30
2019-02-11T20:10:32.176Z,98.30
2019-02-11T20:12:34.127Z,98.30
2019-02-11T20:14:36.062Z,98.30
2019-02-11T20:16:37.778Z,98.30
2019-02-11T20:18:39.504Z,98.30
2019-02-11T20:20:41.445Z,98.30
2019-02-11T20:22:43.268Z,98.30
2019-02-11T20:24:44.982Z,98.30
2019-02-11T20:26:46.930Z,98.30
2019-02-11T20:28:52.109Z,98.30
2019-02-11T20:30:53.824Z,98.30
2019-02-11T20:32:55.557Z,98.30
2019-02-11T20:34:57.253Z,98.30
2019-02-11T20:36:58.976Z,98.30
2019-02-11T20:39:00.882Z,98.30
2019-02-11T20:41:02.693Z,98.30
2019-02-11T20:43:04.409Z,98.30
2019-02-11T20:45:09.240Z,98.30
2019-02-11T20:47:10.954Z,98.30
2019-02-11T20:49:12.677Z,98.30
2019-02-11T20:51:14.514Z,98.30
2019-02-11T20:53:16.229Z,98.30
2019-02-11T20:55:18.141Z,98.30
2019-02-11T20:57:19.974Z,98.30
2019-02-11T20:59:21.733Z,98.30
2019-02-11T21:01:23.454Z,98.30
2019-02-11T21:03:25.194Z,98.30
2019-02-11T21:05:26.898Z,98.30
2019-02-11T21:07:28.609Z,98.30
2019-02-11T21:09:30.436Z,98.30
2019-02-11T21:11:32.233Z,98.30
2019-02-11T21:13:34.034Z,98.30
2019-02-11T21:15:36.036Z,98.30
2019-02-11T21:17:37.749Z,98.30
2019-02-11T21:19:39.472Z,98.30
2019-02-11T21:21:41.197Z,98.30
2019-02-11T21:23:42.910Z,98.30
2019-02-11T21:25:44.727Z,98.30
2019-02-11T21:27:46.434Z,98.30
2019-02-11T21:29:48.160Z,98.30
2019-02-11T21:31:49.866Z,98.30
2019-02-11T21:33:51.577Z,98.30
2019-02-11T21:35:53.276Z,98.30
2019-02-11T21:37:54.985Z,98.30
2019-02-11T21:39:56.697Z,98.30
2019-02-11T21:41:58.612Z,98.30
2019-02-11T21:44:00.349Z,98.30
2019-02-11T21:46:02.085Z,98.30
2019-02-11T21:48:03.913Z,98.30
2019-02-11T21:50:07.625Z,98.30
2019-02-11T21:52:09.441Z,98.30
2019-02-11T21:54:11.273Z,98.30
2019-02-11T21:56:12.978Z,98.30
2019-02-11T21:58:14.697Z,98.30
2019-02-11T22:00:18.461Z,98.30
2019-02-11T22:02:20.289Z,98.30
2019-02-11T22:04:22.378Z,98.30
2019-02-11T22:06:24.153Z,98.30
2019-02-11T22:08:25.852Z,98.30
2019-02-11T22:10:27.692Z,98.30
2019-02-11T22:12:29.425Z,98.30
2019-02-11T22:14:31.210Z,98.30
2019-02-11T22:16:32.964Z,98.30
2019-02-11T22:18:34.706Z,98.30
2019-02-11T22:20:36.609Z,98.30
2019-02-11T22:22:38.599Z,98.30
2019-02-11T22:24:40.301Z,98.30
2019-02-11T22:26:42.029Z,98.30
2019-02-11T22:28:43.757Z,98.30
2019-02-11T22:30:45.468Z,98.30
2019-02-11T22:32:47.211Z,98.30
2019-02-11T22:34:49.063Z,98.30
2019-02-11T22:36:50.871Z,98.30
2019-02-11T22:38:52.694Z,98.30
2019-02-11T22:40:54.605Z,98.30
2019-02-11T22:42:56.442Z,98.30
2019-02-11T22:44:58.401Z,98.30
2019-02-11T22:47:00.253Z,98.30
2019-02-11T22:49:01.956Z,98.30
2019-02-11T22:51:03.661Z,98.30
2019-02-11T22:53:05.469Z,98.30
2019-02-11T22:55:08.126Z,98.30
2019-02-11T22:57:09.820Z,98.30
2019-02-11T22:59:11.670Z,98.30
2019-02-11T23:01:14.190Z,98.30
2019-02-11T23:03:16.385Z,98.30
2019-02-11T23:05:18.304Z,98.30
2019-02-11T23:07:20.114Z,98.30
2019-02-11T23:09:21.914Z,98.30
2019-02-11T23:11:23.745Z,98.30
2019-02-11T23:13:25.465Z,98.30
2019-02-11T23:15:27.272Z,98.30
2019-02-11T23:17:29.010Z,98.30
2019-02-11T23:19:30.704Z,98.30
2019-02-11T23:21:32.410Z,98.30
2019-02-11T23:23:34.124Z,98.30
2019-02-11T23:25:35.953Z,98.30
2019-02-11T23:27:37.641Z,98.30
2019-02-11T23:29:39.448Z,98.30
2019-02-11T23:31:41.430Z,98.30
2019-02-11T23:33:44.013Z,98.30
2019-02-11T23:35:45.716Z,98.30
2019-02-11T23:37:47.437Z,98.30
2019-02-11T23:39:49.149Z,98.30
2019-02-11T23:41:50.848Z,98.30
2019-02-11T23:43:52.657Z,98.30
2019-02-11T23:45:54.380Z,98.30
2019-02-11T23:47:56.157Z,98.30
2019-02-11T23:49:57.881Z,98.30
2019-02-11T23:51:59.576Z,98.30
2019-02-11T23:54:01.290Z,98.30
2019-02-11T23:56:03.111Z,98.30
2019-02-11T23:58:04.906Z,98.30
